Duvall, Washington
Current Conditions -  °F | °C
As of 1:13 PM on Thursday 23 Oct 2014 (Local Time) from KPAE Reporting Station
Scattered Clouds Scattered Clouds  
Wind Chill: 56°   Ceiling: Unl
Heat Index: 56°   Visibility: 10mi
Dew Point: 47°   Wind: 22mph
Humidity: 72%   Direction: 190°S
Pressure: 29.81"   Gusts: 31mph
Location:  47.74°N, 121.99°W
Report Text: KPAE 232013Z 19019G27KT 10SM FEW023 SCT048 SCT060 13/08 A2981 RMK AO2 PK WND 20027/2005 T01330083
Loading
Personal Weather Stations






























Interactive Weather Map
Tropical Storm Tracking
New forecast layout! Learn more

10-Day Weather Forecast

Advertisements
Track Severe Weather on mobile